Time;durP1;ratioP1;P1;durP2;ratioP2;P2;SDS_P1;SDS_P2;PMS_P1;PMS_P2;Temp;Humidity;BMP_temperature;BMP_pressure;BME280_temperature;BME280_humidity;BME280_pressure;Samples;Min_cycle;Max_cycle;Signal;HPM_P1;HPM_P2
2021/05/15 00:01:16;;;;;;;4.00;3.65;;;;;;;16.99;54.54;94046.69;828404;71;32681;-80
2021/05/15 00:16:15;;;;;;;4.20;3.65;;;;;;;16.81;55.03;94039.05;829153;70;32707;-81
2021/05/15 00:31:15;;;;;;;4.30;3.90;;;;;;;16.55;55.96;94042.66;829021;71;32739;-81
2021/05/15 00:46:08;;;;;;;3.62;3.33;;;;;;;16.64;55.64;94044.59;829932;70;29562;-78
2021/05/15 01:01:08;;;;;;;4.50;3.75;;;;;;;15.84;56.68;94040.80;826625;71;29349;-79
2021/05/15 01:16:12;;;;;;;3.58;3.27;;;;;;;16.08;60.03;94041.86;829691;70;31925;-83
2021/05/15 01:31:09;;;;;;;4.30;3.92;;;;;;;16.33;57.55;94039.95;828721;71;29911;-82
2021/05/15 01:46:16;;;;;;;4.08;3.77;;;;;;;16.48;55.70;94027.88;827771;71;32736;-83
2021/05/15 02:01:15;;;;;;;4.83;3.83;;;;;;;16.50;55.06;94037.58;834147;71;32769;-81
2021/05/15 02:16:10;;;;;;;4.60;4.20;;;;;;;16.51;54.78;94036.48;834293;71;30846;-82
2021/05/15 02:31:09;;;;;;;4.85;4.33;;;;;;;16.55;54.45;94029.41;835718;71;29806;-81
2021/05/15 02:46:12;;;;;;;4.28;3.90;;;;;;;15.82;57.01;94024.48;830110;69;32002;-80
2021/05/15 03:01:44;;;;;;;4.08;3.77;;;;;;;16.18;56.16;94028.95;828296;71;30145;-82
2021/05/15 03:16:16;;;;;;;4.05;3.75;;;;;;;16.43;55.37;94030.98;831369;71;30985;-83
2021/05/15 03:31:08;;;;;;;3.65;3.35;;;;;;;16.50;55.31;94026.98;794329;74;29904;-84
2021/05/15 03:46:16;;;;;;;4.58;4.17;;;;;;;16.46;54.21;94032.74;827645;71;32715;-82
2021/05/15 04:01:08;;;;;;;4.30;3.90;;;;;;;15.53;57.00;94001.64;828411;71;29915;-80
2021/05/15 04:16:16;;;;;;;4.40;4.00;;;;;;;16.33;56.12;94033.34;828377;71;30194;-82
2021/05/15 04:31:09;;;;;;;5.58;4.37;;;;;;;16.34;55.64;94034.33;828162;71;30103;-83
2021/05/15 04:46:12;;;;;;;6.47;5.00;;;;;;;15.78;57.28;94027.02;834090;71;31978;-84
2021/05/15 05:01:15;;;;;;;6.97;6.28;;;;;;;16.58;55.51;93994.29;827624;71;33228;-83
2021/05/15 05:16:08;;;;;;;7.10;6.50;;;;;;;16.56;56.15;93958.10;828618;71;29805;-80
2021/05/15 05:31:22;;;;;;;7.53;6.75;;;;;;;16.26;56.29;93959.78;817972;71;33380;-80
2021/05/15 05:46:15;;;;;;;5.42;4.45;;;;;;;17.68;52.27;93969.53;824097;70;32650;-83
2021/05/15 06:01:18;;;;;;;4.33;3.62;;;;;;;19.45;47.98;93956.59;818739;71;32755;-82
2021/05/15 06:16:15;;;;;;;4.60;3.25;;;;;;;20.15;44.66;93963.86;827513;71;33117;-83
2021/05/15 06:31:10;;;;;;;2.80;2.60;;;;;;;20.79;43.37;93950.53;828534;71;30266;-81
2021/05/15 06:46:14;;;;;;;3.17;2.98;;;;;;;21.96;40.43;93935.25;828393;71;32832;-80
2021/05/15 07:01:15;;;;;;;3.60;3.30;;;;;;;22.69;39.11;93937.63;828701;71;33007;-79
2021/05/15 07:16:19;;;;;;;5.93;2.73;;;;;;;23.20;37.57;93919.97;821585;71;32739;-80
2021/05/15 07:31:08;;;;;;;3.20;2.87;;;;;;;24.17;35.89;93907.78;835120;71;29708;-79
2021/05/15 07:46:13;;;;;;;3.97;2.83;;;;;;;24.65;34.72;93895.69;819519;71;32996;-78
2021/05/15 08:01:15;;;;;;;3.07;2.77;;;;;;;25.23;34.21;93889.38;821474;71;32605;-80
2021/05/15 09:16:15;;;;;;;3.20;3.00;;;;;;;24.22;35.09;93840.91;827598;71;32712;-77
2021/05/15 09:31:29;;;;;;;5.43;3.40;;;;;;;23.64;36.03;93839.57;828280;71;32816;-77
2021/05/15 09:46:09;;;;;;;6.30;3.33;;;;;;;22.60;38.78;93843.06;828817;71;29683;-77
2021/05/15 10:01:09;;;;;;;4.70;3.07;;;;;;;21.95;40.49;93830.84;839851;70;29742;-77
2021/05/15 10:16:08;;;;;;;4.08;3.40;;;;;;;20.08;51.75;93836.69;829711;71;29776;-79
2021/05/15 10:31:16;;;;;;;5.42;3.05;;;;;;;18.14;57.68;93847.64;827326;71;32737;-76
2021/05/15 10:46:24;;;;;;;3.22;2.92;;;;;;;16.95;54.53;93845.19;827361;71;32645;-78
2021/05/15 11:01:13;;;;;;;4.80;4.40;;;;;;;16.32;62.17;93835.32;818511;71;29960;-80
2021/05/15 11:16:14;;;;;;;5.95;5.33;;;;;;;16.62;71.79;93825.63;827247;71;32774;-75
2021/05/15 11:31:18;;;;;;;6.65;5.80;;;;;;;16.93;71.90;93838.67;833951;71;32730;-77
2021/05/15 11:46:10;;;;;;;6.50;5.20;;;;;;;16.88;67.80;93842.92;827955;71;29809;-78
2021/05/15 12:01:11;;;;;;;7.65;6.03;;;;;;;17.08;74.85;93834.48;833690;71;30234;-77
2021/05/15 12:16:09;;;;;;;6.17;4.70;;;;;;;17.60;72.70;93812.09;827989;71;30274;-79
2021/05/15 12:31:10;;;;;;;5.85;5.35;;;;;;;17.78;68.91;93801.80;828232;71;30176;-76
2021/05/15 12:46:13;;;;;;;8.55;5.10;;;;;;;17.81;73.29;93766.05;828048;71;29674;-76
2021/05/15 13:01:14;;;;;;;5.20;4.80;;;;;;;18.17;73.19;93730.12;834850;71;30873;-78
2021/05/15 13:16:16;;;;;;;5.25;4.80;;;;;;;19.09;69.28;93717.23;826776;71;32697;-76
2021/05/15 13:31:09;;;;;;;5.53;5.03;;;;;;;19.46;67.62;93694.68;833823;71;30270;-77
2021/05/15 13:46:14;;;;;;;5.22;4.80;;;;;;;19.77;64.26;93695.44;827287;71;33638;-75
2021/05/15 14:01:16;;;;;;;8.65;7.85;;;;;;;19.85;66.11;93667.74;833594;71;33432;-75
2021/05/15 14:16:13;;;;;;;8.80;7.35;;;;;;;19.06;63.41;93673.53;829211;71;31989;-80
2021/05/15 14:31:09;;;;;;;7.05;6.25;;;;;;;18.81;62.56;93655.92;828073;71;29727;-76
2021/05/15 14:46:10;;;;;;;6.90;5.97;;;;;;;18.48;62.40;93645.40;829271;71;30310;-78
2021/05/15 15:01:46;;;;;;;5.78;5.10;;;;;;;18.06;61.30;93635.67;827970;71;30388;-76
2021/05/15 15:16:18;;;;;;;5.85;5.05;;;;;;;18.07;62.58;93635.13;827382;71;32702;-74
2021/05/15 15:31:27;;;;;;;6.75;4.45;;;;;;;18.08;60.86;93626.03;824221;71;32687;-76
2021/05/15 15:46:21;;;;;;;5.70;5.20;;;;;;;18.06;60.62;93629.03;826961;71;32654;-75
2021/05/15 16:01:16;;;;;;;5.95;5.42;;;;;;;18.19;61.48;93630.95;833778;71;30240;-77
2021/05/15 16:16:09;;;;;;;6.55;5.85;;;;;;;18.12;60.88;93636.90;835171;71;30275;-76
2021/05/15 16:31:10;;;;;;;6.12;4.35;;;;;;;17.73;60.05;93646.30;828325;71;30370;-77
2021/05/15 16:46:15;;;;;;;4.70;4.40;;;;;;;17.15;61.27;93648.52;820922;71;32744;-79
2021/05/15 17:01:19;;;;;;;7.78;6.97;;;;;;;17.00;65.98;93651.42;820801;71;33274;-74
2021/05/15 17:16:10;;;;;;;9.30;8.40;;;;;;;16.47;71.16;93664.30;818583;71;30253;-80
2021/05/15 17:31:14;;;;;;;7.62;7.03;;;;;;;15.23;78.10;93695.27;820017;71;31595;-76
2021/05/15 17:46:13;;;;;;;5.37;4.78;;;;;;;14.35;81.73;93716.84;823904;71;33517;-77
2021/05/15 18:01:12;;;;;;;6.08;5.50;;;;;;;14.09;83.03;93715.08;816124;70;30056;-82
2021/05/15 18:16:09;;;;;;;6.70;6.10;;;;;;;13.99;84.12;93718.91;822810;71;29489;-79
2021/05/15 18:31:09;;;;;;;6.97;6.37;;;;;;;13.98;85.14;93733.97;829014;71;30186;-77
2021/05/15 18:46:14;;;;;;;7.42;6.83;;;;;;;14.26;86.31;93745.78;832532;71;33146;-76
2021/05/15 19:01:11;;;;;;;7.40;6.60;;;;;;;14.62;86.01;93759.57;833994;71;30269;-81
2021/05/15 19:16:13;;;;;;;7.55;6.75;;;;;;;14.87;84.93;93765.59;828249;71;30799;-78
2021/05/15 19:31:15;;;;;;;7.65;5.50;;;;;;;14.97;83.57;93764.38;828135;71;33094;-76
2021/05/15 19:46:17;;;;;;;7.72;6.92;;;;;;;15.06;85.07;93755.75;827707;71;32706;-78
2021/05/15 20:01:10;;;;;;;6.00;5.50;;;;;;;15.09;84.53;93741.13;821809;71;30149;-79
2021/05/15 20:16:09;;;;;;;5.58;5.08;;;;;;;15.05;83.91;93731.01;834087;70;30735;-77
2021/05/15 20:31:18;;;;;;;6.85;4.60;;;;;;;15.01;83.72;93716.37;827332;71;32680;-78
2021/05/15 20:46:18;;;;;;;5.22;4.03;;;;;;;14.92;82.40;93713.08;827666;71;32670;-79
2021/05/15 21:01:57;;;;;;;4.62;4.20;;;;;;;14.88;82.45;93698.47;827766;71;32701;-77
2021/05/15 21:16:15;;;;;;;4.87;4.47;;;;;;;14.87;82.25;93682.39;829295;70;32728;-79
2021/05/15 21:31:14;;;;;;;3.60;3.40;;;;;;;14.82;81.29;93683.40;829048;71;32754;-79
2021/05/15 21:46:14;;;;;;;5.12;4.00;;;;;;;14.78;80.60;93689.66;823477;71;32690;-76
2021/05/15 22:01:09;;;;;;;5.47;5.08;;;;;;;13.84;84.12;93700.55;833979;71;30426;-77
2021/05/15 22:16:21;;;;;;;12.63;11.35;;;;;;;13.54;87.55;93711.79;827376;71;32838;-78
2021/05/15 22:31:17;;;;;;;13.15;11.75;;;;;;;13.31;89.81;93716.11;827838;71;32801;-82
2021/05/15 22:46:10;;;;;;;15.08;13.05;;;;;;;13.34;89.97;93718.11;834008;71;29963;-76
2021/05/15 23:01:09;;;;;;;19.20;14.80;;;;;;;13.65;89.22;93712.94;828452;71;29716;-78
2021/05/15 23:16:10;;;;;;;26.23;18.55;;;;;;;13.59;88.33;93689.20;829437;71;30295;-78
2021/05/15 23:31:20;;;;;;;22.87;18.52;;;;;;;13.72;88.46;93679.44;828563;71;32896;-76
2021/05/15 23:46:10;;;;;;;15.65;13.18;;;;;;;13.96;88.49;93670.79;829818;71;30324;-79
